sensor_id;sensor_type;location;lat;lon;timestamp;P1;durP1;ratioP1;P2;durP2;ratioP2
39956;SDS011;48483;44.640;7.494;2023-04-06T00:00:24;17.90;;;12.70;;
39956;SDS011;48483;44.640;7.494;2023-04-06T00:02:52;14.65;;;11.90;;
39956;SDS011;48483;44.640;7.494;2023-04-06T00:05:18;14.68;;;11.85;;
39956;SDS011;48483;44.640;7.494;2023-04-06T00:07:46;17.25;;;12.60;;
39956;SDS011;48483;44.640;7.494;2023-04-06T00:10:13;19.90;;;11.95;;
39956;SDS011;48483;44.640;7.494;2023-04-06T00:12:39;15.38;;;11.65;;
39956;SDS011;48483;44.640;7.494;2023-04-06T00:15:08;16.48;;;11.93;;
39956;SDS011;48483;44.640;7.494;2023-04-06T00:17:36;21.65;;;12.45;;
39956;SDS011;48483;44.640;7.494;2023-04-06T00:20:02;16.85;;;11.25;;
39956;SDS011;48483;44.640;7.494;2023-04-06T00:22:30;18.05;;;12.25;;
39956;SDS011;48483;44.640;7.494;2023-04-06T00:24:57;16.85;;;11.20;;
39956;SDS011;48483;44.640;7.494;2023-04-06T00:27:23;16.58;;;11.27;;
39956;SDS011;48483;44.640;7.494;2023-04-06T00:29:50;18.25;;;12.23;;
39956;SDS011;48483;44.640;7.494;2023-04-06T00:32:18;15.57;;;11.88;;
39956;SDS011;48483;44.640;7.494;2023-04-06T00:34:46;16.92;;;11.98;;
39956;SDS011;48483;44.640;7.494;2023-04-06T00:37:12;16.92;;;11.32;;
39956;SDS011;48483;44.640;7.494;2023-04-06T00:39:39;15.13;;;11.25;;
39956;SDS011;48483;44.640;7.494;2023-04-06T00:42:07;16.13;;;11.48;;
39956;SDS011;48483;44.640;7.494;2023-04-06T00:44:38;16.40;;;11.38;;
39956;SDS011;48483;44.640;7.494;2023-04-06T00:47:05;19.08;;;11.27;;
39956;SDS011;48483;44.640;7.494;2023-04-06T00:49:33;14.95;;;10.63;;
39956;SDS011;48483;44.640;7.494;2023-04-06T00:52:00;15.40;;;10.85;;
39956;SDS011;48483;44.640;7.494;2023-04-06T00:54:28;16.38;;;11.90;;
39956;SDS011;48483;44.640;7.494;2023-04-06T00:56:55;12.57;;;10.40;;
39956;SDS011;48483;44.640;7.494;2023-04-06T00:59:22;14.93;;;11.80;;
39956;SDS011;48483;44.640;7.494;2023-04-06T01:01:50;15.50;;;10.48;;
39956;SDS011;48483;44.640;7.494;2023-04-06T01:04:29;15.93;;;11.43;;
39956;SDS011;48483;44.640;7.494;2023-04-06T01:06:59;16.02;;;11.05;;
39956;SDS011;48483;44.640;7.494;2023-04-06T01:09:32;15.38;;;9.93;;
39956;SDS011;48483;44.640;7.494;2023-04-06T01:12:04;18.40;;;10.70;;
39956;SDS011;48483;44.640;7.494;2023-04-06T01:14:33;14.80;;;11.27;;
39956;SDS011;48483;44.640;7.494;2023-04-06T01:17:00;18.35;;;11.65;;
39956;SDS011;48483;44.640;7.494;2023-04-06T01:19:30;14.25;;;10.23;;
39956;SDS011;48483;44.640;7.494;2023-04-06T01:21:59;17.00;;;10.27;;
39956;SDS011;48483;44.640;7.494;2023-04-06T01:24:33;15.07;;;11.35;;
39956;SDS011;48483;44.640;7.494;2023-04-06T01:27:15;14.18;;;11.10;;
39956;SDS011;48483;44.640;7.494;2023-04-06T01:29:51;16.05;;;11.90;;
39956;SDS011;48483;44.640;7.494;2023-04-06T01:32:37;15.30;;;11.30;;
39956;SDS011;48483;44.640;7.494;2023-04-06T01:35:04;14.20;;;10.02;;
39956;SDS011;48483;44.640;7.494;2023-04-06T01:37:34;16.95;;;11.88;;
39956;SDS011;48483;44.640;7.494;2023-04-06T01:40:06;13.55;;;10.93;;
39956;SDS011;48483;44.640;7.494;2023-04-06T01:42:43;15.63;;;11.15;;
39956;SDS011;48483;44.640;7.494;2023-04-06T01:45:13;15.13;;;12.10;;
39956;SDS011;48483;44.640;7.494;2023-04-06T01:47:40;16.77;;;12.23;;
39956;SDS011;48483;44.640;7.494;2023-04-06T01:50:08;13.55;;;10.40;;
39956;SDS011;48483;44.640;7.494;2023-04-06T01:52:40;17.38;;;11.65;;
39956;SDS011;48483;44.640;7.494;2023-04-06T01:55:08;15.52;;;11.35;;
39956;SDS011;48483;44.640;7.494;2023-04-06T01:57:56;15.38;;;11.25;;
39956;SDS011;48483;44.640;7.494;2023-04-06T02:00:32;15.02;;;10.93;;
39956;SDS011;48483;44.640;7.494;2023-04-06T02:02:59;15.73;;;11.52;;
39956;SDS011;48483;44.640;7.494;2023-04-06T02:05:29;17.63;;;12.10;;
39956;SDS011;48483;44.640;7.494;2023-04-06T02:07:57;17.08;;;10.20;;
39956;SDS011;48483;44.640;7.494;2023-04-06T02:10:32;13.65;;;10.55;;
39956;SDS011;48483;44.640;7.494;2023-04-06T02:13:05;13.88;;;10.82;;
39956;SDS011;48483;44.640;7.494;2023-04-06T02:15:32;13.93;;;11.43;;
39956;SDS011;48483;44.640;7.494;2023-04-06T02:17:59;13.80;;;11.57;;
39956;SDS011;48483;44.640;7.494;2023-04-06T02:20:26;15.82;;;10.18;;
39956;SDS011;48483;44.640;7.494;2023-04-06T02:22:53;17.35;;;11.23;;
39956;SDS011;48483;44.640;7.494;2023-04-06T02:25:20;14.27;;;10.10;;
39956;SDS011;48483;44.640;7.494;2023-04-06T02:27:48;15.38;;;11.27;;
39956;SDS011;48483;44.640;7.494;2023-04-06T02:30:15;14.25;;;10.38;;
39956;SDS011;48483;44.640;7.494;2023-04-06T02:32:42;14.45;;;10.85;;
39956;SDS011;48483;44.640;7.494;2023-04-06T02:35:08;15.23;;;10.13;;
39956;SDS011;48483;44.640;7.494;2023-04-06T02:37:35;13.52;;;10.27;;
39956;SDS011;48483;44.640;7.494;2023-04-06T02:40:02;20.70;;;10.68;;
39956;SDS011;48483;44.640;7.494;2023-04-06T02:42:31;13.82;;;11.43;;
39956;SDS011;48483;44.640;7.494;2023-04-06T02:45:01;16.70;;;11.25;;
39956;SDS011;48483;44.640;7.494;2023-04-06T02:47:32;15.45;;;10.98;;
39956;SDS011;48483;44.640;7.494;2023-04-06T02:49:59;12.88;;;10.32;;
39956;SDS011;48483;44.640;7.494;2023-04-06T02:52:26;13.45;;;10.35;;
39956;SDS011;48483;44.640;7.494;2023-04-06T02:54:53;14.25;;;10.38;;
39956;SDS011;48483;44.640;7.494;2023-04-06T02:57:26;17.40;;;10.70;;
39956;SDS011;48483;44.640;7.494;2023-04-06T02:59:53;19.13;;;12.15;;
39956;SDS011;48483;44.640;7.494;2023-04-06T03:02:28;13.65;;;9.48;;
39956;SDS011;48483;44.640;7.494;2023-04-06T03:05:04;17.42;;;11.18;;
39956;SDS011;48483;44.640;7.494;2023-04-06T03:07:35;14.95;;;10.40;;
39956;SDS011;48483;44.640;7.494;2023-04-06T03:10:02;13.45;;;9.70;;
39956;SDS011;48483;44.640;7.494;2023-04-06T03:12:31;13.77;;;10.45;;
39956;SDS011;48483;44.640;7.494;2023-04-06T03:15:12;12.23;;;9.45;;
39956;SDS011;48483;44.640;7.494;2023-04-06T03:17:44;13.25;;;9.43;;
39956;SDS011;48483;44.640;7.494;2023-04-06T03:20:22;14.68;;;10.30;;
39956;SDS011;48483;44.640;7.494;2023-04-06T03:22:49;14.30;;;10.15;;
39956;SDS011;48483;44.640;7.494;2023-04-06T03:25:19;16.23;;;10.38;;
39956;SDS011;48483;44.640;7.494;2023-04-06T03:27:46;14.18;;;10.23;;
39956;SDS011;48483;44.640;7.494;2023-04-06T03:30:16;12.30;;;10.13;;
39956;SDS011;48483;44.640;7.494;2023-04-06T03:32:45;15.10;;;10.35;;
39956;SDS011;48483;44.640;7.494;2023-04-06T03:35:12;14.10;;;9.50;;
39956;SDS011;48483;44.640;7.494;2023-04-06T03:37:38;13.82;;;10.43;;
39956;SDS011;48483;44.640;7.494;2023-04-06T03:40:06;13.48;;;9.98;;
39956;SDS011;48483;44.640;7.494;2023-04-06T03:42:33;16.23;;;10.40;;
39956;SDS011;48483;44.640;7.494;2023-04-06T03:45:06;11.77;;;9.52;;
39956;SDS011;48483;44.640;7.494;2023-04-06T03:47:34;13.95;;;10.18;;
39956;SDS011;48483;44.640;7.494;2023-04-06T03:50:06;14.10;;;10.57;;
39956;SDS011;48483;44.640;7.494;2023-04-06T03:52:34;15.50;;;10.02;;
39956;SDS011;48483;44.640;7.494;2023-04-06T03:55:02;13.25;;;10.05;;
39956;SDS011;48483;44.640;7.494;2023-04-06T03:57:29;13.25;;;9.43;;
39956;SDS011;48483;44.640;7.494;2023-04-06T03:59:57;16.75;;;10.40;;
39956;SDS011;48483;44.640;7.494;2023-04-06T04:02:25;11.73;;;9.70;;
39956;SDS011;48483;44.640;7.494;2023-04-06T04:04:52;13.35;;;9.38;;
39956;SDS011;48483;44.640;7.494;2023-04-06T04:07:20;13.32;;;9.38;;
39956;SDS011;48483;44.640;7.494;2023-04-06T04:09:47;15.48;;;9.88;;
39956;SDS011;48483;44.640;7.494;2023-04-06T04:12:14;14.13;;;10.05;;
39956;SDS011;48483;44.640;7.494;2023-04-06T04:14:42;16.70;;;10.95;;
39956;SDS011;48483;44.640;7.494;2023-04-06T04:17:09;15.85;;;10.85;;
39956;SDS011;48483;44.640;7.494;2023-04-06T04:19:36;13.60;;;10.48;;
39956;SDS011;48483;44.640;7.494;2023-04-06T04:22:03;17.98;;;11.55;;
39956;SDS011;48483;44.640;7.494;2023-04-06T04:24:34;17.13;;;10.75;;
39956;SDS011;48483;44.640;7.494;2023-04-06T04:27:01;11.98;;;8.82;;
39956;SDS011;48483;44.640;7.494;2023-04-06T04:29:30;16.65;;;9.75;;
39956;SDS011;48483;44.640;7.494;2023-04-06T04:32:02;14.98;;;9.13;;
39956;SDS011;48483;44.640;7.494;2023-04-06T04:34:29;11.88;;;9.40;;
39956;SDS011;48483;44.640;7.494;2023-04-06T04:36:57;12.45;;;9.60;;
39956;SDS011;48483;44.640;7.494;2023-04-06T04:39:42;13.60;;;10.00;;
39956;SDS011;48483;44.640;7.494;2023-04-06T04:42:09;13.63;;;9.27;;
39956;SDS011;48483;44.640;7.494;2023-04-06T04:44:40;13.27;;;9.68;;
39956;SDS011;48483;44.640;7.494;2023-04-06T04:47:07;11.57;;;8.88;;
39956;SDS011;48483;44.640;7.494;2023-04-06T04:49:42;14.27;;;9.38;;
39956;SDS011;48483;44.640;7.494;2023-04-06T04:52:09;20.77;;;11.52;;
39956;SDS011;48483;44.640;7.494;2023-04-06T04:54:50;14.88;;;9.10;;
39956;SDS011;48483;44.640;7.494;2023-04-06T04:57:23;12.73;;;9.20;;
39956;SDS011;48483;44.640;7.494;2023-04-06T04:59:50;17.25;;;10.73;;
39956;SDS011;48483;44.640;7.494;2023-04-06T05:02:18;14.18;;;9.43;;
39956;SDS011;48483;44.640;7.494;2023-04-06T05:05:06;15.10;;;9.65;;
39956;SDS011;48483;44.640;7.494;2023-04-06T05:07:33;15.70;;;10.45;;
39956;SDS011;48483;44.640;7.494;2023-04-06T05:10:02;15.02;;;10.10;;
39956;SDS011;48483;44.640;7.494;2023-04-06T05:12:36;17.92;;;10.73;;
39956;SDS011;48483;44.640;7.494;2023-04-06T05:15:09;16.67;;;9.90;;
39956;SDS011;48483;44.640;7.494;2023-04-06T05:17:36;14.75;;;9.75;;
39956;SDS011;48483;44.640;7.494;2023-04-06T05:20:05;17.67;;;10.45;;
39956;SDS011;48483;44.640;7.494;2023-04-06T05:22:37;18.38;;;10.20;;
39956;SDS011;48483;44.640;7.494;2023-04-06T05:25:09;14.15;;;7.90;;
39956;SDS011;48483;44.640;7.494;2023-04-06T05:27:37;18.83;;;10.50;;
39956;SDS011;48483;44.640;7.494;2023-04-06T05:30:10;19.73;;;10.68;;
39956;SDS011;48483;44.640;7.494;2023-04-06T05:32:43;16.33;;;10.55;;
39956;SDS011;48483;44.640;7.494;2023-04-06T05:35:10;16.15;;;10.02;;
39956;SDS011;48483;44.640;7.494;2023-04-06T05:37:39;16.77;;;9.77;;
39956;SDS011;48483;44.640;7.494;2023-04-06T05:40:07;14.77;;;9.65;;
39956;SDS011;48483;44.640;7.494;2023-04-06T05:42:36;13.48;;;9.02;;
39956;SDS011;48483;44.640;7.494;2023-04-06T05:45:05;16.98;;;10.23;;
39956;SDS011;48483;44.640;7.494;2023-04-06T05:47:33;13.40;;;8.55;;
39956;SDS011;48483;44.640;7.494;2023-04-06T05:50:09;16.05;;;9.98;;
39956;SDS011;48483;44.640;7.494;2023-04-06T05:52:38;15.90;;;9.40;;
39956;SDS011;48483;44.640;7.494;2023-04-06T05:55:05;14.35;;;9.43;;
39956;SDS011;48483;44.640;7.494;2023-04-06T05:57:33;14.90;;;9.40;;
39956;SDS011;48483;44.640;7.494;2023-04-06T06:00:03;16.52;;;9.73;;
39956;SDS011;48483;44.640;7.494;2023-04-06T06:02:50;18.98;;;9.95;;
39956;SDS011;48483;44.640;7.494;2023-04-06T06:05:21;10.98;;;8.93;;
39956;SDS011;48483;44.640;7.494;2023-04-06T06:07:49;12.02;;;9.32;;
39956;SDS011;48483;44.640;7.494;2023-04-06T06:10:16;12.43;;;8.50;;
39956;SDS011;48483;44.640;7.494;2023-04-06T06:12:44;14.88;;;9.48;;
39956;SDS011;48483;44.640;7.494;2023-04-06T06:15:11;14.35;;;9.52;;
39956;SDS011;48483;44.640;7.494;2023-04-06T06:17:43;14.90;;;9.30;;
39956;SDS011;48483;44.640;7.494;2023-04-06T06:20:10;13.60;;;8.98;;
39956;SDS011;48483;44.640;7.494;2023-04-06T06:22:39;9.30;;;7.15;;
39956;SDS011;48483;44.640;7.494;2023-04-06T06:25:09;11.32;;;8.63;;
39956;SDS011;48483;44.640;7.494;2023-04-06T06:27:36;10.60;;;7.32;;
39956;SDS011;48483;44.640;7.494;2023-04-06T06:30:06;13.02;;;8.07;;
39956;SDS011;48483;44.640;7.494;2023-04-06T06:32:35;11.13;;;8.13;;
39956;SDS011;48483;44.640;7.494;2023-04-06T06:35:02;10.38;;;7.93;;
39956;SDS011;48483;44.640;7.494;2023-04-06T06:37:29;11.27;;;8.02;;
39956;SDS011;48483;44.640;7.494;2023-04-06T06:39:56;10.95;;;7.93;;
39956;SDS011;48483;44.640;7.494;2023-04-06T06:42:22;12.98;;;8.07;;
39956;SDS011;48483;44.640;7.494;2023-04-06T06:45:11;10.90;;;7.70;;
39956;SDS011;48483;44.640;7.494;2023-04-06T06:47:37;12.93;;;8.20;;
39956;SDS011;48483;44.640;7.494;2023-04-06T06:50:05;14.90;;;8.38;;
39956;SDS011;48483;44.640;7.494;2023-04-06T06:52:32;13.05;;;8.60;;
39956;SDS011;48483;44.640;7.494;2023-04-06T06:54:59;11.23;;;8.43;;
39956;SDS011;48483;44.640;7.494;2023-04-06T06:57:27;15.35;;;8.98;;
39956;SDS011;48483;44.640;7.494;2023-04-06T06:59:54;12.43;;;8.77;;
39956;SDS011;48483;44.640;7.494;2023-04-06T07:02:23;12.05;;;8.85;;
39956;SDS011;48483;44.640;7.494;2023-04-06T07:04:49;9.75;;;7.35;;
39956;SDS011;48483;44.640;7.494;2023-04-06T07:07:16;10.18;;;8.00;;
39956;SDS011;48483;44.640;7.494;2023-04-06T07:09:43;10.82;;;7.07;;
39956;SDS011;48483;44.640;7.494;2023-04-06T07:12:10;12.65;;;9.23;;
39956;SDS011;48483;44.640;7.494;2023-04-06T07:14:37;11.45;;;8.13;;
39956;SDS011;48483;44.640;7.494;2023-04-06T07:17:03;29.90;;;12.93;;
39956;SDS011;48483;44.640;7.494;2023-04-06T07:19:32;17.20;;;9.88;;
39956;SDS011;48483;44.640;7.494;2023-04-06T07:21:59;17.20;;;9.07;;
39956;SDS011;48483;44.640;7.494;2023-04-06T07:24:26;12.25;;;8.70;;
39956;SDS011;48483;44.640;7.494;2023-04-06T07:26:53;14.90;;;9.02;;
39956;SDS011;48483;44.640;7.494;2023-04-06T07:29:21;10.93;;;8.13;;
39956;SDS011;48483;44.640;7.494;2023-04-06T07:31:49;12.73;;;9.27;;
39956;SDS011;48483;44.640;7.494;2023-04-06T07:34:16;10.82;;;8.20;;
39956;SDS011;48483;44.640;7.494;2023-04-06T07:36:44;14.88;;;8.48;;
39956;SDS011;48483;44.640;7.494;2023-04-06T07:39:11;17.70;;;9.98;;
39956;SDS011;48483;44.640;7.494;2023-04-06T07:41:38;12.70;;;9.70;;
39956;SDS011;48483;44.640;7.494;2023-04-06T07:44:06;15.68;;;9.02;;
39956;SDS011;48483;44.640;7.494;2023-04-06T07:46:33;11.48;;;8.85;;
39956;SDS011;48483;44.640;7.494;2023-04-06T07:49:00;11.32;;;9.35;;
39956;SDS011;48483;44.640;7.494;2023-04-06T07:51:30;15.77;;;10.07;;
39956;SDS011;48483;44.640;7.494;2023-04-06T07:53:58;11.65;;;9.30;;
39956;SDS011;48483;44.640;7.494;2023-04-06T07:56:25;11.70;;;9.13;;
39956;SDS011;48483;44.640;7.494;2023-04-06T07:58:52;13.32;;;9.85;;
39956;SDS011;48483;44.640;7.494;2023-04-06T08:01:22;13.13;;;10.10;;
39956;SDS011;48483;44.640;7.494;2023-04-06T08:03:49;13.80;;;10.30;;
39956;SDS011;48483;44.640;7.494;2023-04-06T08:06:16;11.55;;;9.73;;
39956;SDS011;48483;44.640;7.494;2023-04-06T08:08:43;13.48;;;10.18;;
39956;SDS011;48483;44.640;7.494;2023-04-06T08:11:11;11.27;;;9.02;;
39956;SDS011;48483;44.640;7.494;2023-04-06T08:13:37;20.05;;;10.93;;
39956;SDS011;48483;44.640;7.494;2023-04-06T08:16:04;18.60;;;9.88;;
39956;SDS011;48483;44.640;7.494;2023-04-06T08:18:32;14.38;;;10.52;;
39956;SDS011;48483;44.640;7.494;2023-04-06T08:20:59;16.08;;;9.80;;
39956;SDS011;48483;44.640;7.494;2023-04-06T08:23:25;15.82;;;10.70;;
39956;SDS011;48483;44.640;7.494;2023-04-06T08:25:52;14.50;;;10.35;;
39956;SDS011;48483;44.640;7.494;2023-04-06T08:28:21;14.00;;;9.77;;
39956;SDS011;48483;44.640;7.494;2023-04-06T08:30:48;16.85;;;9.32;;
39956;SDS011;48483;44.640;7.494;2023-04-06T08:33:15;13.07;;;10.15;;
39956;SDS011;48483;44.640;7.494;2023-04-06T08:35:41;12.20;;;9.25;;
39956;SDS011;48483;44.640;7.494;2023-04-06T08:38:08;16.38;;;10.38;;
39956;SDS011;48483;44.640;7.494;2023-04-06T08:40:38;12.70;;;9.00;;
39956;SDS011;48483;44.640;7.494;2023-04-06T08:43:06;15.65;;;10.07;;
39956;SDS011;48483;44.640;7.494;2023-04-06T08:45:37;14.75;;;10.20;;
39956;SDS011;48483;44.640;7.494;2023-04-06T08:48:05;14.15;;;10.07;;
39956;SDS011;48483;44.640;7.494;2023-04-06T08:50:32;11.93;;;10.35;;
39956;SDS011;48483;44.640;7.494;2023-04-06T08:52:59;15.60;;;10.18;;
39956;SDS011;48483;44.640;7.494;2023-04-06T08:55:27;14.35;;;10.15;;
39956;SDS011;48483;44.640;7.494;2023-04-06T08:57:54;16.70;;;10.52;;
39956;SDS011;48483;44.640;7.494;2023-04-06T09:00:21;16.88;;;10.13;;
39956;SDS011;48483;44.640;7.494;2023-04-06T09:02:51;12.95;;;9.40;;
39956;SDS011;48483;44.640;7.494;2023-04-06T09:05:21;14.18;;;8.75;;
39956;SDS011;48483;44.640;7.494;2023-04-06T09:07:50;11.70;;;8.85;;
39956;SDS011;48483;44.640;7.494;2023-04-06T09:10:17;10.30;;;8.48;;
39956;SDS011;48483;44.640;7.494;2023-04-06T09:12:44;12.15;;;8.88;;
39956;SDS011;48483;44.640;7.494;2023-04-06T09:15:17;11.10;;;8.38;;
39956;SDS011;48483;44.640;7.494;2023-04-06T09:17:45;13.38;;;8.68;;
39956;SDS011;48483;44.640;7.494;2023-04-06T09:20:13;15.18;;;8.23;;
39956;SDS011;48483;44.640;7.494;2023-04-06T09:22:40;11.90;;;8.30;;
39956;SDS011;48483;44.640;7.494;2023-04-06T09:25:10;11.95;;;8.38;;
39956;SDS011;48483;44.640;7.494;2023-04-06T09:27:45;14.13;;;9.70;;
39956;SDS011;48483;44.640;7.494;2023-04-06T09:30:12;11.45;;;8.98;;
39956;SDS011;48483;44.640;7.494;2023-04-06T09:32:45;11.55;;;8.85;;
39956;SDS011;48483;44.640;7.494;2023-04-06T09:35:14;15.15;;;10.05;;
39956;SDS011;48483;44.640;7.494;2023-04-06T09:37:41;12.90;;;9.48;;
39956;SDS011;48483;44.640;7.494;2023-04-06T09:40:08;14.48;;;9.20;;
39956;SDS011;48483;44.640;7.494;2023-04-06T09:42:36;14.27;;;10.85;;
39956;SDS011;48483;44.640;7.494;2023-04-06T09:45:03;17.52;;;9.52;;
39956;SDS011;48483;44.640;7.494;2023-04-06T09:47:30;13.38;;;9.93;;
39956;SDS011;48483;44.640;7.494;2023-04-06T09:49:59;13.50;;;10.30;;
39956;SDS011;48483;44.640;7.494;2023-04-06T09:52:27;12.15;;;9.27;;
39956;SDS011;48483;44.640;7.494;2023-04-06T09:54:59;13.18;;;10.85;;
39956;SDS011;48483;44.640;7.494;2023-04-06T09:57:31;14.70;;;11.60;;
39956;SDS011;48483;44.640;7.494;2023-04-06T10:00:05;14.50;;;10.57;;
39956;SDS011;48483;44.640;7.494;2023-04-06T10:02:39;16.45;;;12.70;;
39956;SDS011;48483;44.640;7.494;2023-04-06T10:05:13;14.38;;;12.57;;
39956;SDS011;48483;44.640;7.494;2023-04-06T10:07:46;16.90;;;11.85;;
39956;SDS011;48483;44.640;7.494;2023-04-06T10:10:16;15.98;;;12.18;;
39956;SDS011;48483;44.640;7.494;2023-04-06T10:12:43;12.57;;;11.15;;
39956;SDS011;48483;44.640;7.494;2023-04-06T10:15:10;13.55;;;11.40;;
39956;SDS011;48483;44.640;7.494;2023-04-06T10:17:37;15.43;;;10.32;;
39956;SDS011;48483;44.640;7.494;2023-04-06T10:20:06;16.90;;;11.50;;
39956;SDS011;48483;44.640;7.494;2023-04-06T10:22:37;20.52;;;13.57;;
39956;SDS011;48483;44.640;7.494;2023-04-06T10:25:10;17.60;;;11.23;;
39956;SDS011;48483;44.640;7.494;2023-04-06T10:27:37;17.00;;;11.68;;
39956;SDS011;48483;44.640;7.494;2023-04-06T10:30:04;15.75;;;11.63;;
39956;SDS011;48483;44.640;7.494;2023-04-06T10:32:33;17.02;;;11.77;;
39956;SDS011;48483;44.640;7.494;2023-04-06T10:35:05;19.02;;;11.52;;
39956;SDS011;48483;44.640;7.494;2023-04-06T10:40:18;16.15;;;11.32;;
39956;SDS011;48483;44.640;7.494;2023-04-06T10:42:47;13.73;;;12.13;;
39956;SDS011;48483;44.640;7.494;2023-04-06T10:45:20;17.90;;;12.65;;
39956;SDS011;48483;44.640;7.494;2023-04-06T10:47:48;16.35;;;12.13;;
39956;SDS011;48483;44.640;7.494;2023-04-06T10:50:16;17.13;;;11.40;;
39956;SDS011;48483;44.640;7.494;2023-04-06T10:52:44;16.00;;;12.07;;
39956;SDS011;48483;44.640;7.494;2023-04-06T10:55:11;15.70;;;12.48;;
39956;SDS011;48483;44.640;7.494;2023-04-06T10:57:42;17.52;;;14.50;;
39956;SDS011;48483;44.640;7.494;2023-04-06T11:00:11;15.57;;;11.90;;
39956;SDS011;48483;44.640;7.494;2023-04-06T11:02:38;15.27;;;13.27;;
39956;SDS011;48483;44.640;7.494;2023-04-06T11:05:05;16.88;;;13.95;;
39956;SDS011;48483;44.640;7.494;2023-04-06T11:07:33;17.17;;;13.68;;
39956;SDS011;48483;44.640;7.494;2023-04-06T11:10:00;15.65;;;12.07;;
39956;SDS011;48483;44.640;7.494;2023-04-06T11:12:27;18.85;;;12.65;;
39956;SDS011;48483;44.640;7.494;2023-04-06T11:14:57;16.52;;;12.98;;
39956;SDS011;48483;44.640;7.494;2023-04-06T11:17:32;15.73;;;13.07;;
39956;SDS011;48483;44.640;7.494;2023-04-06T11:20:00;17.75;;;13.90;;
39956;SDS011;48483;44.640;7.494;2023-04-06T11:22:26;16.20;;;12.98;;
39956;SDS011;48483;44.640;7.494;2023-04-06T11:25:03;17.70;;;13.13;;
39956;SDS011;48483;44.640;7.494;2023-04-06T11:27:31;18.67;;;12.82;;
39956;SDS011;48483;44.640;7.494;2023-04-06T11:30:00;17.33;;;12.02;;
39956;SDS011;48483;44.640;7.494;2023-04-06T11:32:27;16.05;;;12.90;;
39956;SDS011;48483;44.640;7.494;2023-04-06T11:34:54;19.75;;;12.35;;
39956;SDS011;48483;44.640;7.494;2023-04-06T11:37:25;17.27;;;13.10;;
39956;SDS011;48483;44.640;7.494;2023-04-06T11:39:54;18.42;;;13.13;;
39956;SDS011;48483;44.640;7.494;2023-04-06T11:42:23;19.67;;;13.52;;
39956;SDS011;48483;44.640;7.494;2023-04-06T11:44:51;16.33;;;13.18;;
39956;SDS011;48483;44.640;7.494;2023-04-06T11:47:28;15.80;;;12.38;;
39956;SDS011;48483;44.640;7.494;2023-04-06T11:49:56;21.80;;;12.65;;
39956;SDS011;48483;44.640;7.494;2023-04-06T11:52:32;19.58;;;13.45;;
39956;SDS011;48483;44.640;7.494;2023-04-06T11:54:58;23.00;;;13.13;;
39956;SDS011;48483;44.640;7.494;2023-04-06T11:57:37;16.15;;;12.43;;
39956;SDS011;48483;44.640;7.494;2023-04-06T12:00:04;19.83;;;14.52;;
39956;SDS011;48483;44.640;7.494;2023-04-06T12:02:33;19.08;;;13.82;;
39956;SDS011;48483;44.640;7.494;2023-04-06T12:05:00;21.73;;;14.48;;
39956;SDS011;48483;44.640;7.494;2023-04-06T12:07:28;14.88;;;13.15;;
39956;SDS011;48483;44.640;7.494;2023-04-06T12:09:54;24.75;;;16.63;;
39956;SDS011;48483;44.640;7.494;2023-04-06T12:12:21;17.95;;;14.05;;
39956;SDS011;48483;44.640;7.494;2023-04-06T12:14:48;18.55;;;14.05;;
39956;SDS011;48483;44.640;7.494;2023-04-06T12:17:14;17.52;;;14.85;;
39956;SDS011;48483;44.640;7.494;2023-04-06T12:19:42;16.80;;;13.82;;
39956;SDS011;48483;44.640;7.494;2023-04-06T12:22:09;17.75;;;13.70;;
39956;SDS011;48483;44.640;7.494;2023-04-06T12:24:36;20.15;;;14.30;;
39956;SDS011;48483;44.640;7.494;2023-04-06T12:27:03;21.70;;;14.40;;
39956;SDS011;48483;44.640;7.494;2023-04-06T12:29:29;17.70;;;14.43;;
39956;SDS011;48483;44.640;7.494;2023-04-06T12:31:56;17.50;;;13.90;;
39956;SDS011;48483;44.640;7.494;2023-04-06T12:34:23;20.38;;;15.55;;
39956;SDS011;48483;44.640;7.494;2023-04-06T12:36:51;16.98;;;13.82;;
39956;SDS011;48483;44.640;7.494;2023-04-06T12:39:18;20.52;;;12.95;;
39956;SDS011;48483;44.640;7.494;2023-04-06T12:41:46;15.65;;;13.15;;
39956;SDS011;48483;44.640;7.494;2023-04-06T12:44:12;18.55;;;13.50;;
39956;SDS011;48483;44.640;7.494;2023-04-06T12:46:39;19.92;;;14.65;;
39956;SDS011;48483;44.640;7.494;2023-04-06T12:49:06;19.10;;;14.68;;
39956;SDS011;48483;44.640;7.494;2023-04-06T12:51:33;17.40;;;14.52;;
39956;SDS011;48483;44.640;7.494;2023-04-06T12:54:01;16.85;;;13.73;;
39956;SDS011;48483;44.640;7.494;2023-04-06T12:56:28;20.35;;;15.30;;
39956;SDS011;48483;44.640;7.494;2023-04-06T12:58:54;17.48;;;14.50;;
39956;SDS011;48483;44.640;7.494;2023-04-06T13:01:21;16.92;;;14.60;;
39956;SDS011;48483;44.640;7.494;2023-04-06T13:03:48;17.90;;;14.85;;
39956;SDS011;48483;44.640;7.494;2023-04-06T13:06:15;16.02;;;14.27;;
39956;SDS011;48483;44.640;7.494;2023-04-06T13:08:42;20.92;;;15.23;;
39956;SDS011;48483;44.640;7.494;2023-04-06T13:11:10;18.10;;;14.98;;
39956;SDS011;48483;44.640;7.494;2023-04-06T13:13:37;21.05;;;15.35;;
39956;SDS011;48483;44.640;7.494;2023-04-06T13:16:05;17.42;;;15.52;;
39956;SDS011;48483;44.640;7.494;2023-04-06T13:18:33;20.27;;;14.27;;
39956;SDS011;48483;44.640;7.494;2023-04-06T13:21:01;17.90;;;14.60;;
39956;SDS011;48483;44.640;7.494;2023-04-06T13:23:28;16.85;;;14.45;;
39956;SDS011;48483;44.640;7.494;2023-04-06T13:25:58;17.48;;;13.38;;
39956;SDS011;48483;44.640;7.494;2023-04-06T13:28:27;16.45;;;13.38;;
39956;SDS011;48483;44.640;7.494;2023-04-06T13:30:54;18.65;;;14.27;;
39956;SDS011;48483;44.640;7.494;2023-04-06T13:33:21;18.27;;;13.73;;
39956;SDS011;48483;44.640;7.494;2023-04-06T13:35:48;16.90;;;13.18;;
39956;SDS011;48483;44.640;7.494;2023-04-06T13:38:14;18.67;;;13.93;;
39956;SDS011;48483;44.640;7.494;2023-04-06T13:40:42;18.08;;;14.40;;
39956;SDS011;48483;44.640;7.494;2023-04-06T13:43:09;16.33;;;13.18;;
39956;SDS011;48483;44.640;7.494;2023-04-06T13:45:37;16.75;;;14.82;;
39956;SDS011;48483;44.640;7.494;2023-04-06T13:48:05;15.95;;;13.38;;
39956;SDS011;48483;44.640;7.494;2023-04-06T13:50:32;17.05;;;13.38;;
39956;SDS011;48483;44.640;7.494;2023-04-06T13:52:59;18.83;;;14.40;;
39956;SDS011;48483;44.640;7.494;2023-04-06T13:55:26;17.60;;;13.90;;
39956;SDS011;48483;44.640;7.494;2023-04-06T13:57:52;16.17;;;14.07;;
39956;SDS011;48483;44.640;7.494;2023-04-06T14:00:20;18.85;;;14.27;;
39956;SDS011;48483;44.640;7.494;2023-04-06T14:02:49;16.50;;;13.77;;
39956;SDS011;48483;44.640;7.494;2023-04-06T14:05:16;19.98;;;15.00;;
39956;SDS011;48483;44.640;7.494;2023-04-06T14:07:43;18.20;;;13.15;;
39956;SDS011;48483;44.640;7.494;2023-04-06T14:10:10;17.60;;;13.95;;
39956;SDS011;48483;44.640;7.494;2023-04-06T14:12:40;18.48;;;15.30;;
39956;SDS011;48483;44.640;7.494;2023-04-06T14:15:07;19.65;;;14.60;;
39956;SDS011;48483;44.640;7.494;2023-04-06T14:17:35;19.85;;;14.48;;
39956;SDS011;48483;44.640;7.494;2023-04-06T14:20:03;20.13;;;16.17;;
39956;SDS011;48483;44.640;7.494;2023-04-06T14:22:31;18.23;;;14.55;;
39956;SDS011;48483;44.640;7.494;2023-04-06T14:24:58;17.00;;;13.98;;
39956;SDS011;48483;44.640;7.494;2023-04-06T14:27:25;16.75;;;14.85;;
39956;SDS011;48483;44.640;7.494;2023-04-06T14:29:52;21.70;;;15.48;;
39956;SDS011;48483;44.640;7.494;2023-04-06T14:32:20;17.67;;;14.30;;
39956;SDS011;48483;44.640;7.494;2023-04-06T14:34:47;20.75;;;14.27;;
39956;SDS011;48483;44.640;7.494;2023-04-06T14:37:15;29.77;;;16.02;;